sensor_id;sensor_type;location;lat;lon;timestamp;P1;durP1;ratioP1;P2;durP2;ratioP2
9508;SDS011;4792;50.088;8.122;2022-12-18T00:02:24;24.40;;;13.67;;
9508;SDS011;4792;50.088;8.122;2022-12-18T00:04:52;24.23;;;14.13;;
9508;SDS011;4792;50.088;8.122;2022-12-18T00:07:21;27.43;;;14.70;;
9508;SDS011;4792;50.088;8.122;2022-12-18T00:09:49;29.50;;;14.90;;
9508;SDS011;4792;50.088;8.122;2022-12-18T00:12:17;27.60;;;14.97;;
9508;SDS011;4792;50.088;8.122;2022-12-18T00:14:46;28.23;;;15.40;;
9508;SDS011;4792;50.088;8.122;2022-12-18T00:17:14;27.87;;;15.53;;
9508;SDS011;4792;50.088;8.122;2022-12-18T00:19:42;25.20;;;13.97;;
9508;SDS011;4792;50.088;8.122;2022-12-18T00:22:11;28.10;;;15.03;;
9508;SDS011;4792;50.088;8.122;2022-12-18T00:24:39;31.10;;;16.63;;
9508;SDS011;4792;50.088;8.122;2022-12-18T00:27:07;32.77;;;16.93;;
9508;SDS011;4792;50.088;8.122;2022-12-18T00:29:35;30.40;;;16.83;;
9508;SDS011;4792;50.088;8.122;2022-12-18T00:32:04;28.67;;;16.70;;
9508;SDS011;4792;50.088;8.122;2022-12-18T00:34:32;30.87;;;17.00;;
9508;SDS011;4792;50.088;8.122;2022-12-18T00:37:00;32.70;;;18.03;;
9508;SDS011;4792;50.088;8.122;2022-12-18T00:39:28;33.50;;;17.90;;
9508;SDS011;4792;50.088;8.122;2022-12-18T00:41:57;33.50;;;19.40;;
9508;SDS011;4792;50.088;8.122;2022-12-18T00:44:42;37.27;;;20.43;;
9508;SDS011;4792;50.088;8.122;2022-12-18T00:47:11;32.60;;;18.47;;
9508;SDS011;4792;50.088;8.122;2022-12-18T00:49:40;37.30;;;20.87;;
9508;SDS011;4792;50.088;8.122;2022-12-18T00:52:08;31.73;;;19.10;;
9508;SDS011;4792;50.088;8.122;2022-12-18T00:54:36;38.17;;;19.37;;
9508;SDS011;4792;50.088;8.122;2022-12-18T00:57:04;37.03;;;20.27;;
9508;SDS011;4792;50.088;8.122;2022-12-18T00:59:32;38.30;;;19.57;;
9508;SDS011;4792;50.088;8.122;2022-12-18T01:02:00;34.73;;;20.33;;
9508;SDS011;4792;50.088;8.122;2022-12-18T01:04:31;40.57;;;22.67;;
9508;SDS011;4792;50.088;8.122;2022-12-18T01:07:00;39.43;;;21.50;;
9508;SDS011;4792;50.088;8.122;2022-12-18T01:09:28;35.63;;;20.00;;
9508;SDS011;4792;50.088;8.122;2022-12-18T01:11:56;41.57;;;22.93;;
9508;SDS011;4792;50.088;8.122;2022-12-18T01:14:24;39.60;;;22.07;;
9508;SDS011;4792;50.088;8.122;2022-12-18T01:16:52;42.23;;;21.37;;
9508;SDS011;4792;50.088;8.122;2022-12-18T01:19:20;39.77;;;21.20;;
9508;SDS011;4792;50.088;8.122;2022-12-18T01:21:51;38.23;;;21.53;;
9508;SDS011;4792;50.088;8.122;2022-12-18T01:24:19;44.93;;;23.20;;
9508;SDS011;4792;50.088;8.122;2022-12-18T01:26:47;43.17;;;21.93;;
9508;SDS011;4792;50.088;8.122;2022-12-18T01:29:15;38.90;;;20.50;;
9508;SDS011;4792;50.088;8.122;2022-12-18T01:31:43;37.90;;;22.37;;
9508;SDS011;4792;50.088;8.122;2022-12-18T01:34:12;38.80;;;21.63;;
9508;SDS011;4792;50.088;8.122;2022-12-18T01:36:40;40.57;;;22.57;;
9508;SDS011;4792;50.088;8.122;2022-12-18T01:39:11;37.97;;;22.30;;
9508;SDS011;4792;50.088;8.122;2022-12-18T01:41:41;46.10;;;21.23;;
9508;SDS011;4792;50.088;8.122;2022-12-18T01:47:26;35.95;;;20.20;;
9508;SDS011;4792;50.088;8.122;2022-12-18T01:49:58;33.93;;;19.77;;
9508;SDS011;4792;50.088;8.122;2022-12-18T01:52:29;39.90;;;21.10;;
9508;SDS011;4792;50.088;8.122;2022-12-18T01:55:01;32.83;;;19.77;;
9508;SDS011;4792;50.088;8.122;2022-12-18T01:57:33;36.27;;;19.50;;
9508;SDS011;4792;50.088;8.122;2022-12-18T02:00:04;37.23;;;21.40;;
9508;SDS011;4792;50.088;8.122;2022-12-18T02:02:34;39.27;;;20.53;;
9508;SDS011;4792;50.088;8.122;2022-12-18T02:05:02;43.63;;;20.10;;
9508;SDS011;4792;50.088;8.122;2022-12-18T02:07:35;37.53;;;19.47;;
9508;SDS011;4792;50.088;8.122;2022-12-18T02:10:13;39.40;;;19.70;;
9508;SDS011;4792;50.088;8.122;2022-12-18T02:12:48;36.73;;;20.17;;
9508;SDS011;4792;50.088;8.122;2022-12-18T02:15:22;35.67;;;19.83;;
9508;SDS011;4792;50.088;8.122;2022-12-18T02:17:56;39.20;;;19.10;;
9508;SDS011;4792;50.088;8.122;2022-12-18T02:20:38;39.33;;;20.97;;
9508;SDS011;4792;50.088;8.122;2022-12-18T02:23:14;37.47;;;19.33;;
9508;SDS011;4792;50.088;8.122;2022-12-18T02:26:04;38.20;;;20.03;;
9508;SDS011;4792;50.088;8.122;2022-12-18T02:28:42;41.93;;;19.77;;
9508;SDS011;4792;50.088;8.122;2022-12-18T02:31:14;40.80;;;20.70;;
9508;SDS011;4792;50.088;8.122;2022-12-18T02:33:45;38.43;;;18.83;;
9508;SDS011;4792;50.088;8.122;2022-12-18T02:36:15;38.90;;;20.93;;
9508;SDS011;4792;50.088;8.122;2022-12-18T02:38:45;38.73;;;20.67;;
9508;SDS011;4792;50.088;8.122;2022-12-18T02:41:16;44.60;;;21.67;;
9508;SDS011;4792;50.088;8.122;2022-12-18T02:43:48;39.67;;;21.03;;
9508;SDS011;4792;50.088;8.122;2022-12-18T02:46:27;40.30;;;19.77;;
9508;SDS011;4792;50.088;8.122;2022-12-18T02:49:01;38.13;;;20.33;;
9508;SDS011;4792;50.088;8.122;2022-12-18T02:51:43;41.47;;;21.47;;
9508;SDS011;4792;50.088;8.122;2022-12-18T02:54:18;41.33;;;20.73;;
9508;SDS011;4792;50.088;8.122;2022-12-18T02:56:57;38.20;;;21.83;;
9508;SDS011;4792;50.088;8.122;2022-12-18T02:59:33;46.60;;;21.77;;
9508;SDS011;4792;50.088;8.122;2022-12-18T03:02:09;38.13;;;20.33;;
9508;SDS011;4792;50.088;8.122;2022-12-18T03:04:46;41.80;;;22.03;;
9508;SDS011;4792;50.088;8.122;2022-12-18T03:07:18;39.67;;;21.73;;
9508;SDS011;4792;50.088;8.122;2022-12-18T03:09:53;39.30;;;21.33;;
9508;SDS011;4792;50.088;8.122;2022-12-18T03:12:26;39.43;;;21.03;;
9508;SDS011;4792;50.088;8.122;2022-12-18T03:14:59;40.17;;;20.93;;
9508;SDS011;4792;50.088;8.122;2022-12-18T03:17:32;43.67;;;21.97;;
9508;SDS011;4792;50.088;8.122;2022-12-18T03:20:03;43.70;;;22.37;;
9508;SDS011;4792;50.088;8.122;2022-12-18T03:22:52;35.63;;;20.00;;
9508;SDS011;4792;50.088;8.122;2022-12-18T03:25:24;41.60;;;21.50;;
9508;SDS011;4792;50.088;8.122;2022-12-18T03:27:56;40.50;;;20.77;;
9508;SDS011;4792;50.088;8.122;2022-12-18T03:30:28;39.37;;;20.80;;
9508;SDS011;4792;50.088;8.122;2022-12-18T03:32:58;43.93;;;21.53;;
9508;SDS011;4792;50.088;8.122;2022-12-18T03:35:33;41.20;;;21.23;;
9508;SDS011;4792;50.088;8.122;2022-12-18T03:38:04;39.53;;;20.97;;
9508;SDS011;4792;50.088;8.122;2022-12-18T03:40:35;40.70;;;19.83;;
9508;SDS011;4792;50.088;8.122;2022-12-18T03:43:16;43.13;;;20.67;;
9508;SDS011;4792;50.088;8.122;2022-12-18T03:45:48;42.73;;;21.73;;
9508;SDS011;4792;50.088;8.122;2022-12-18T03:48:24;40.80;;;20.40;;
9508;SDS011;4792;50.088;8.122;2022-12-18T03:50:56;40.27;;;21.50;;
9508;SDS011;4792;50.088;8.122;2022-12-18T03:53:31;35.37;;;19.97;;
9508;SDS011;4792;50.088;8.122;2022-12-18T03:56:05;37.23;;;20.47;;
9508;SDS011;4792;50.088;8.122;2022-12-18T03:58:37;40.27;;;21.30;;
9508;SDS011;4792;50.088;8.122;2022-12-18T04:01:07;38.13;;;19.20;;
9508;SDS011;4792;50.088;8.122;2022-12-18T04:03:38;43.33;;;21.03;;
9508;SDS011;4792;50.088;8.122;2022-12-18T04:06:08;41.10;;;20.97;;
9508;SDS011;4792;50.088;8.122;2022-12-18T04:08:38;40.73;;;21.90;;
9508;SDS011;4792;50.088;8.122;2022-12-18T04:11:07;38.90;;;20.67;;
9508;SDS011;4792;50.088;8.122;2022-12-18T04:13:37;40.93;;;20.40;;
9508;SDS011;4792;50.088;8.122;2022-12-18T04:16:06;40.73;;;21.20;;
9508;SDS011;4792;50.088;8.122;2022-12-18T04:18:35;41.77;;;21.63;;
9508;SDS011;4792;50.088;8.122;2022-12-18T04:21:04;40.07;;;22.03;;
9508;SDS011;4792;50.088;8.122;2022-12-18T04:23:32;42.60;;;21.77;;
9508;SDS011;4792;50.088;8.122;2022-12-18T04:26:00;39.23;;;19.77;;
9508;SDS011;4792;50.088;8.122;2022-12-18T04:28:28;39.33;;;21.60;;
9508;SDS011;4792;50.088;8.122;2022-12-18T04:30:58;41.43;;;20.60;;
9508;SDS011;4792;50.088;8.122;2022-12-18T04:33:26;43.93;;;21.57;;
9508;SDS011;4792;50.088;8.122;2022-12-18T04:35:54;42.10;;;22.83;;
9508;SDS011;4792;50.088;8.122;2022-12-18T04:38:22;42.23;;;22.37;;
9508;SDS011;4792;50.088;8.122;2022-12-18T04:40:50;42.93;;;21.70;;
9508;SDS011;4792;50.088;8.122;2022-12-18T04:43:18;42.40;;;20.97;;
9508;SDS011;4792;50.088;8.122;2022-12-18T04:45:46;41.83;;;22.10;;
9508;SDS011;4792;50.088;8.122;2022-12-18T04:48:16;42.93;;;22.73;;
9508;SDS011;4792;50.088;8.122;2022-12-18T04:50:44;41.37;;;21.63;;
9508;SDS011;4792;50.088;8.122;2022-12-18T04:53:12;43.67;;;20.97;;
9508;SDS011;4792;50.088;8.122;2022-12-18T04:55:40;41.17;;;22.37;;
9508;SDS011;4792;50.088;8.122;2022-12-18T04:58:08;44.07;;;22.53;;
9508;SDS011;4792;50.088;8.122;2022-12-18T05:00:36;48.17;;;21.53;;
9508;SDS011;4792;50.088;8.122;2022-12-18T05:03:04;40.30;;;22.10;;
9508;SDS011;4792;50.088;8.122;2022-12-18T05:05:35;41.20;;;21.87;;
9508;SDS011;4792;50.088;8.122;2022-12-18T05:08:03;46.77;;;22.17;;
9508;SDS011;4792;50.088;8.122;2022-12-18T05:10:32;45.20;;;22.70;;
9508;SDS011;4792;50.088;8.122;2022-12-18T05:13:03;46.63;;;22.37;;
9508;SDS011;4792;50.088;8.122;2022-12-18T05:15:32;41.90;;;22.00;;
9508;SDS011;4792;50.088;8.122;2022-12-18T05:18:01;46.53;;;21.57;;
9508;SDS011;4792;50.088;8.122;2022-12-18T05:20:30;41.93;;;21.03;;
9508;SDS011;4792;50.088;8.122;2022-12-18T05:23:00;44.87;;;22.90;;
9508;SDS011;4792;50.088;8.122;2022-12-18T05:25:28;40.13;;;21.23;;
9508;SDS011;4792;50.088;8.122;2022-12-18T05:27:56;42.60;;;21.23;;
9508;SDS011;4792;50.088;8.122;2022-12-18T05:30:25;46.77;;;25.03;;
9508;SDS011;4792;50.088;8.122;2022-12-18T05:32:53;44.40;;;21.70;;
9508;SDS011;4792;50.088;8.122;2022-12-18T05:35:21;46.50;;;23.83;;
9508;SDS011;4792;50.088;8.122;2022-12-18T05:37:49;47.80;;;22.97;;
9508;SDS011;4792;50.088;8.122;2022-12-18T05:40:19;45.47;;;21.57;;
9508;SDS011;4792;50.088;8.122;2022-12-18T05:42:47;49.10;;;23.33;;
9508;SDS011;4792;50.088;8.122;2022-12-18T05:45:15;45.97;;;23.37;;
9508;SDS011;4792;50.088;8.122;2022-12-18T05:47:43;44.27;;;22.40;;
9508;SDS011;4792;50.088;8.122;2022-12-18T05:50:11;45.60;;;22.43;;
9508;SDS011;4792;50.088;8.122;2022-12-18T05:52:40;48.37;;;22.03;;
9508;SDS011;4792;50.088;8.122;2022-12-18T05:55:08;44.13;;;22.60;;
9508;SDS011;4792;50.088;8.122;2022-12-18T05:57:37;47.40;;;23.80;;
9508;SDS011;4792;50.088;8.122;2022-12-18T06:00:06;49.47;;;23.30;;
9508;SDS011;4792;50.088;8.122;2022-12-18T06:02:35;45.70;;;23.20;;
9508;SDS011;4792;50.088;8.122;2022-12-18T06:05:04;44.97;;;23.97;;
9508;SDS011;4792;50.088;8.122;2022-12-18T06:07:33;44.47;;;22.67;;
9508;SDS011;4792;50.088;8.122;2022-12-18T06:10:01;42.80;;;21.70;;
9508;SDS011;4792;50.088;8.122;2022-12-18T06:12:29;41.30;;;22.53;;
9508;SDS011;4792;50.088;8.122;2022-12-18T06:15:01;47.30;;;23.50;;
9508;SDS011;4792;50.088;8.122;2022-12-18T06:17:29;42.17;;;21.80;;
9508;SDS011;4792;50.088;8.122;2022-12-18T06:19:58;46.73;;;23.03;;
9508;SDS011;4792;50.088;8.122;2022-12-18T06:22:27;43.80;;;22.17;;
9508;SDS011;4792;50.088;8.122;2022-12-18T06:24:55;44.97;;;23.23;;
9508;SDS011;4792;50.088;8.122;2022-12-18T06:27:24;46.03;;;23.50;;
9508;SDS011;4792;50.088;8.122;2022-12-18T06:29:52;41.77;;;22.07;;
9508;SDS011;4792;50.088;8.122;2022-12-18T06:32:21;40.23;;;21.43;;
9508;SDS011;4792;50.088;8.122;2022-12-18T06:34:49;46.00;;;23.33;;
9508;SDS011;4792;50.088;8.122;2022-12-18T06:37:17;47.17;;;22.53;;
9508;SDS011;4792;50.088;8.122;2022-12-18T06:39:46;47.07;;;23.63;;
9508;SDS011;4792;50.088;8.122;2022-12-18T06:42:14;52.03;;;24.07;;
9508;SDS011;4792;50.088;8.122;2022-12-18T06:44:42;43.50;;;22.30;;
9508;SDS011;4792;50.088;8.122;2022-12-18T06:47:10;44.73;;;21.90;;
9508;SDS011;4792;50.088;8.122;2022-12-18T06:49:40;44.93;;;21.93;;
9508;SDS011;4792;50.088;8.122;2022-12-18T06:52:08;43.47;;;24.07;;
9508;SDS011;4792;50.088;8.122;2022-12-18T06:54:36;50.30;;;23.23;;
9508;SDS011;4792;50.088;8.122;2022-12-18T06:57:04;48.40;;;23.03;;
9508;SDS011;4792;50.088;8.122;2022-12-18T06:59:32;40.93;;;21.20;;
9508;SDS011;4792;50.088;8.122;2022-12-18T07:02:00;42.60;;;21.97;;
9508;SDS011;4792;50.088;8.122;2022-12-18T07:04:29;42.93;;;21.50;;
9508;SDS011;4792;50.088;8.122;2022-12-18T07:06:59;40.73;;;21.10;;
9508;SDS011;4792;50.088;8.122;2022-12-18T07:09:27;40.80;;;20.10;;
9508;SDS011;4792;50.088;8.122;2022-12-18T07:11:55;43.67;;;22.07;;
9508;SDS011;4792;50.088;8.122;2022-12-18T07:14:24;48.77;;;23.07;;
9508;SDS011;4792;50.088;8.122;2022-12-18T07:16:52;47.70;;;24.20;;
9508;SDS011;4792;50.088;8.122;2022-12-18T07:19:21;45.53;;;23.00;;
9508;SDS011;4792;50.088;8.122;2022-12-18T07:21:49;49.87;;;21.70;;
9508;SDS011;4792;50.088;8.122;2022-12-18T07:24:18;42.17;;;21.90;;
9508;SDS011;4792;50.088;8.122;2022-12-18T07:26:47;43.20;;;22.60;;
9508;SDS011;4792;50.088;8.122;2022-12-18T07:29:15;42.30;;;23.10;;
9508;SDS011;4792;50.088;8.122;2022-12-18T07:31:43;46.13;;;22.00;;
9508;SDS011;4792;50.088;8.122;2022-12-18T07:34:11;38.60;;;20.90;;
9508;SDS011;4792;50.088;8.122;2022-12-18T07:36:41;44.60;;;21.67;;
9508;SDS011;4792;50.088;8.122;2022-12-18T07:39:10;47.30;;;25.83;;
9508;SDS011;4792;50.088;8.122;2022-12-18T07:41:39;49.23;;;23.87;;
9508;SDS011;4792;50.088;8.122;2022-12-18T07:44:12;54.17;;;25.97;;
9508;SDS011;4792;50.088;8.122;2022-12-18T07:46:41;52.20;;;24.27;;
9508;SDS011;4792;50.088;8.122;2022-12-18T07:49:09;62.20;;;31.73;;
9508;SDS011;4792;50.088;8.122;2022-12-18T07:51:37;44.47;;;21.17;;
9508;SDS011;4792;50.088;8.122;2022-12-18T07:54:05;45.43;;;22.97;;
9508;SDS011;4792;50.088;8.122;2022-12-18T07:56:33;41.57;;;22.87;;
9508;SDS011;4792;50.088;8.122;2022-12-18T07:59:04;37.77;;;20.97;;
9508;SDS011;4792;50.088;8.122;2022-12-18T08:01:32;41.63;;;20.93;;
9508;SDS011;4792;50.088;8.122;2022-12-18T08:04:02;42.13;;;21.67;;
9508;SDS011;4792;50.088;8.122;2022-12-18T08:06:30;39.87;;;20.47;;
9508;SDS011;4792;50.088;8.122;2022-12-18T08:08:58;38.67;;;20.03;;
9508;SDS011;4792;50.088;8.122;2022-12-18T08:11:27;43.17;;;21.87;;
9508;SDS011;4792;50.088;8.122;2022-12-18T08:13:56;35.60;;;20.50;;
9508;SDS011;4792;50.088;8.122;2022-12-18T08:16:26;38.33;;;19.90;;
9508;SDS011;4792;50.088;8.122;2022-12-18T08:18:54;43.73;;;22.47;;
9508;SDS011;4792;50.088;8.122;2022-12-18T08:21:23;39.00;;;19.67;;
9508;SDS011;4792;50.088;8.122;2022-12-18T08:23:53;37.60;;;20.00;;
9508;SDS011;4792;50.088;8.122;2022-12-18T08:26:23;44.27;;;21.57;;
9508;SDS011;4792;50.088;8.122;2022-12-18T08:28:53;40.23;;;20.40;;
9508;SDS011;4792;50.088;8.122;2022-12-18T08:31:22;32.60;;;18.37;;
9508;SDS011;4792;50.088;8.122;2022-12-18T08:33:52;38.07;;;19.30;;
9508;SDS011;4792;50.088;8.122;2022-12-18T08:36:22;33.47;;;17.63;;
9508;SDS011;4792;50.088;8.122;2022-12-18T08:38:52;33.00;;;19.37;;
9508;SDS011;4792;50.088;8.122;2022-12-18T08:41:21;37.87;;;19.57;;
9508;SDS011;4792;50.088;8.122;2022-12-18T08:43:49;36.23;;;18.83;;
9508;SDS011;4792;50.088;8.122;2022-12-18T08:46:35;38.27;;;20.83;;
9508;SDS011;4792;50.088;8.122;2022-12-18T08:49:06;51.67;;;26.03;;
9508;SDS011;4792;50.088;8.122;2022-12-18T08:51:35;68.17;;;34.07;;
9508;SDS011;4792;50.088;8.122;2022-12-18T08:54:03;39.10;;;19.10;;
9508;SDS011;4792;50.088;8.122;2022-12-18T08:56:32;38.87;;;19.80;;
9508;SDS011;4792;50.088;8.122;2022-12-18T08:59:01;34.97;;;19.53;;
9508;SDS011;4792;50.088;8.122;2022-12-18T09:01:30;35.97;;;19.97;;
9508;SDS011;4792;50.088;8.122;2022-12-18T09:04:00;40.67;;;20.90;;
9508;SDS011;4792;50.088;8.122;2022-12-18T09:06:31;36.07;;;19.90;;
9508;SDS011;4792;50.088;8.122;2022-12-18T09:08:59;36.73;;;20.13;;
9508;SDS011;4792;50.088;8.122;2022-12-18T09:11:27;39.50;;;20.80;;
9508;SDS011;4792;50.088;8.122;2022-12-18T09:13:56;82.50;;;39.20;;
9508;SDS011;4792;50.088;8.122;2022-12-18T09:16:25;41.50;;;21.07;;
9508;SDS011;4792;50.088;8.122;2022-12-18T09:18:58;36.73;;;18.03;;
9508;SDS011;4792;50.088;8.122;2022-12-18T09:21:27;39.27;;;21.03;;
9508;SDS011;4792;50.088;8.122;2022-12-18T09:24:01;38.07;;;21.13;;
9508;SDS011;4792;50.088;8.122;2022-12-18T09:26:33;38.93;;;18.90;;
9508;SDS011;4792;50.088;8.122;2022-12-18T09:29:02;38.30;;;20.03;;
9508;SDS011;4792;50.088;8.122;2022-12-18T09:31:30;38.17;;;20.10;;
9508;SDS011;4792;50.088;8.122;2022-12-18T09:33:58;36.53;;;19.50;;
9508;SDS011;4792;50.088;8.122;2022-12-18T09:36:27;34.80;;;17.80;;
9508;SDS011;4792;50.088;8.122;2022-12-18T09:38:55;44.87;;;22.53;;
9508;SDS011;4792;50.088;8.122;2022-12-18T09:41:32;35.57;;;18.50;;
9508;SDS011;4792;50.088;8.122;2022-12-18T09:44:10;35.70;;;18.30;;
9508;SDS011;4792;50.088;8.122;2022-12-18T09:46:50;35.73;;;18.97;;
9508;SDS011;4792;50.088;8.122;2022-12-18T09:49:34;37.67;;;18.40;;
9508;SDS011;4792;50.088;8.122;2022-12-18T09:52:08;37.43;;;21.37;;
9508;SDS011;4792;50.088;8.122;2022-12-18T09:54:41;38.33;;;20.13;;
9508;SDS011;4792;50.088;8.122;2022-12-18T09:57:14;41.70;;;21.23;;
9508;SDS011;4792;50.088;8.122;2022-12-18T09:59:46;39.70;;;20.17;;
9508;SDS011;4792;50.088;8.122;2022-12-18T10:02:20;43.07;;;19.73;;
9508;SDS011;4792;50.088;8.122;2022-12-18T10:04:53;60.50;;;31.87;;
9508;SDS011;4792;50.088;8.122;2022-12-18T10:07:31;52.43;;;25.77;;
9508;SDS011;4792;50.088;8.122;2022-12-18T10:10:10;49.43;;;24.50;;
9508;SDS011;4792;50.088;8.122;2022-12-18T10:12:49;43.60;;;21.70;;
9508;SDS011;4792;50.088;8.122;2022-12-18T10:15:30;36.27;;;19.23;;
9508;SDS011;4792;50.088;8.122;2022-12-18T10:18:06;40.80;;;20.77;;
9508;SDS011;4792;50.088;8.122;2022-12-18T10:20:47;41.50;;;20.97;;
9508;SDS011;4792;50.088;8.122;2022-12-18T10:23:18;48.07;;;24.00;;
9508;SDS011;4792;50.088;8.122;2022-12-18T10:25:53;43.80;;;22.17;;
9508;SDS011;4792;50.088;8.122;2022-12-18T10:28:30;43.50;;;23.67;;
9508;SDS011;4792;50.088;8.122;2022-12-18T10:31:01;44.10;;;24.93;;
9508;SDS011;4792;50.088;8.122;2022-12-18T10:33:30;37.73;;;20.20;;
9508;SDS011;4792;50.088;8.122;2022-12-18T10:36:00;40.07;;;23.33;;
9508;SDS011;4792;50.088;8.122;2022-12-18T10:38:29;45.30;;;25.23;;
9508;SDS011;4792;50.088;8.122;2022-12-18T10:41:00;47.00;;;23.83;;
9508;SDS011;4792;50.088;8.122;2022-12-18T10:43:31;42.57;;;23.43;;
9508;SDS011;4792;50.088;8.122;2022-12-18T10:46:02;41.27;;;22.83;;
9508;SDS011;4792;50.088;8.122;2022-12-18T10:48:39;46.47;;;24.87;;
9508;SDS011;4792;50.088;8.122;2022-12-18T10:51:19;49.07;;;25.23;;
9508;SDS011;4792;50.088;8.122;2022-12-18T10:53:51;44.43;;;24.33;;
9508;SDS011;4792;50.088;8.122;2022-12-18T10:56:24;43.83;;;21.23;;
9508;SDS011;4792;50.088;8.122;2022-12-18T10:58:57;43.50;;;21.53;;
9508;SDS011;4792;50.088;8.122;2022-12-18T11:01:27;43.93;;;23.03;;
9508;SDS011;4792;50.088;8.122;2022-12-18T11:04:02;38.00;;;21.47;;
9508;SDS011;4792;50.088;8.122;2022-12-18T11:06:35;42.80;;;22.60;;
9508;SDS011;4792;50.088;8.122;2022-12-18T11:09:21;42.83;;;23.63;;
9508;SDS011;4792;50.088;8.122;2022-12-18T11:11:51;39.83;;;21.47;;
9508;SDS011;4792;50.088;8.122;2022-12-18T11:14:23;47.73;;;24.40;;
9508;SDS011;4792;50.088;8.122;2022-12-18T11:16:54;45.10;;;23.07;;
9508;SDS011;4792;50.088;8.122;2022-12-18T11:19:43;46.77;;;24.23;;
9508;SDS011;4792;50.088;8.122;2022-12-18T11:22:19;47.70;;;24.53;;
9508;SDS011;4792;50.088;8.122;2022-12-18T11:24:53;50.03;;;24.63;;
9508;SDS011;4792;50.088;8.122;2022-12-18T11:27:47;46.23;;;24.00;;
9508;SDS011;4792;50.088;8.122;2022-12-18T11:30:22;47.70;;;24.43;;
9508;SDS011;4792;50.088;8.122;2022-12-18T11:32:53;51.43;;;25.93;;
9508;SDS011;4792;50.088;8.122;2022-12-18T11:35:27;54.70;;;28.83;;
9508;SDS011;4792;50.088;8.122;2022-12-18T11:38:10;56.30;;;28.17;;
9508;SDS011;4792;50.088;8.122;2022-12-18T11:40:47;62.47;;;30.47;;
9508;SDS011;4792;50.088;8.122;2022-12-18T11:43:22;50.43;;;26.27;;
9508;SDS011;4792;50.088;8.122;2022-12-18T11:45:57;48.43;;;25.87;;
9508;SDS011;4792;50.088;8.122;2022-12-18T11:48:30;50.53;;;25.73;;
9508;SDS011;4792;50.088;8.122;2022-12-18T11:51:05;50.47;;;27.80;;
9508;SDS011;4792;50.088;8.122;2022-12-18T11:53:40;50.27;;;24.17;;
9508;SDS011;4792;50.088;8.122;2022-12-18T11:56:14;51.43;;;27.30;;
9508;SDS011;4792;50.088;8.122;2022-12-18T11:58:55;52.77;;;26.97;;
9508;SDS011;4792;50.088;8.122;2022-12-18T12:01:38;54.00;;;28.90;;
9508;SDS011;4792;50.088;8.122;2022-12-18T12:04:26;62.23;;;29.50;;
9508;SDS011;4792;50.088;8.122;2022-12-18T12:07:09;62.53;;;29.83;;
9508;SDS011;4792;50.088;8.122;2022-12-18T12:09:50;66.23;;;30.67;;
9508;SDS011;4792;50.088;8.122;2022-12-18T12:12:29;70.90;;;32.40;;
9508;SDS011;4792;50.088;8.122;2022-12-18T12:15:17;54.43;;;27.70;;
9508;SDS011;4792;50.088;8.122;2022-12-18T12:17:55;60.50;;;30.50;;
9508;SDS011;4792;50.088;8.122;2022-12-18T12:20:39;61.77;;;30.27;;
9508;SDS011;4792;50.088;8.122;2022-12-18T12:23:19;64.00;;;30.97;;
9508;SDS011;4792;50.088;8.122;2022-12-18T12:25:59;65.77;;;32.37;;
9508;SDS011;4792;50.088;8.122;2022-12-18T12:28:36;67.57;;;32.70;;
9508;SDS011;4792;50.088;8.122;2022-12-18T12:31:27;62.03;;;30.73;;
9508;SDS011;4792;50.088;8.122;2022-12-18T12:34:09;64.60;;;31.23;;
9508;SDS011;4792;50.088;8.122;2022-12-18T12:36:49;52.73;;;30.47;;
9508;SDS011;4792;50.088;8.122;2022-12-18T12:39:30;63.33;;;31.97;;
9508;SDS011;4792;50.088;8.122;2022-12-18T12:42:02;58.70;;;29.93;;
9508;SDS011;4792;50.088;8.122;2022-12-18T12:44:49;61.70;;;29.57;;
9508;SDS011;4792;50.088;8.122;2022-12-18T12:47:23;58.93;;;29.13;;
9508;SDS011;4792;50.088;8.122;2022-12-18T12:49:56;58.43;;;28.60;;
9508;SDS011;4792;50.088;8.122;2022-12-18T12:52:31;61.27;;;31.87;;
9508;SDS011;4792;50.088;8.122;2022-12-18T12:55:02;63.90;;;30.47;;
9508;SDS011;4792;50.088;8.122;2022-12-18T12:57:41;70.77;;;33.67;;
9508;SDS011;4792;50.088;8.122;2022-12-18T13:02:44;65.57;;;32.57;;
9508;SDS011;4792;50.088;8.122;2022-12-18T13:05:21;76.00;;;36.53;;
9508;SDS011;4792;50.088;8.122;2022-12-18T13:07:56;65.70;;;31.80;;
9508;SDS011;4792;50.088;8.122;2022-12-18T13:10:33;73.73;;;33.90;;
9508;SDS011;4792;50.088;8.122;2022-12-18T13:13:04;71.53;;;33.87;;
9508;SDS011;4792;50.088;8.122;2022-12-18T13:15:36;74.97;;;35.30;;
9508;SDS011;4792;50.088;8.122;2022-12-18T13:18:16;68.20;;;31.87;;
9508;SDS011;4792;50.088;8.122;2022-12-18T13:20:49;69.47;;;33.43;;
9508;SDS011;4792;50.088;8.122;2022-12-18T13:23:30;62.43;;;31.77;;
9508;SDS011;4792;50.088;8.122;2022-12-18T13:28:57;71.27;;;30.70;;
9508;SDS011;4792;50.088;8.122;2022-12-18T13:34:26;68.60;;;30.50;;
9508;SDS011;4792;50.088;8.122;2022-12-18T13:40:01;70.73;;;31.33;;
9508;SDS011;4792;50.088;8.122;2022-12-18T13:42:39;81.70;;;35.37;;
9508;SDS011;4792;50.088;8.122;2022-12-18T13:45:35;78.93;;;32.60;;
9508;SDS011;4792;50.088;8.122;2022-12-18T13:48:15;78.63;;;34.63;;
9508;SDS011;4792;50.088;8.122;2022-12-18T13:50:48;112.07;;;43.60;;
9508;SDS011;4792;50.088;8.122;2022-12-18T13:53:20;101.63;;;43.73;;
9508;SDS011;4792;50.088;8.122;2022-12-18T13:55:52;78.03;;;34.90;;
9508;SDS011;4792;50.088;8.122;2022-12-18T13:58:21;79.00;;;34.70;;
9508;SDS011;4792;50.088;8.122;2022-12-18T14:00:50;73.00;;;33.07;;
9508;SDS011;4792;50.088;8.122;2022-12-18T14:03:19;79.10;;;34.63;;
9508;SDS011;4792;50.088;8.122;2022-12-18T14:05:53;77.77;;;34.97;;
9508;SDS011;4792;50.088;8.122;2022-12-18T14:08:25;72.53;;;32.40;;
9508;SDS011;4792;50.088;8.122;2022-12-18T14:11:01;81.37;;;34.40;;
9508;SDS011;4792;50.088;8.122;2022-12-18T14:13:32;82.57;;;34.20;;
9508;SDS011;4792;50.088;8.122;2022-12-18T14:16:04;75.23;;;33.40;;
9508;SDS011;4792;50.088;8.122;2022-12-18T14:18:38;87.10;;;33.40;;
9508;SDS011;4792;50.088;8.122;2022-12-18T14:21:23;82.53;;;34.83;;
9508;SDS011;4792;50.088;8.122;2022-12-18T14:24:04;79.30;;;34.13;;
9508;SDS011;4792;50.088;8.122;2022-12-18T14:26:35;78.43;;;34.10;;
9508;SDS011;4792;50.088;8.122;2022-12-18T14:29:17;81.43;;;31.90;;
9508;SDS011;4792;50.088;8.122;2022-12-18T14:34:37;77.40;;;33.97;;
9508;SDS011;4792;50.088;8.122;2022-12-18T14:37:05;77.50;;;34.07;;
9508;SDS011;4792;50.088;8.122;2022-12-18T14:39:36;71.03;;;30.90;;
9508;SDS011;4792;50.088;8.122;2022-12-18T14:42:09;84.57;;;31.60;;
9508;SDS011;4792;50.088;8.122;2022-12-18T14:44:38;74.23;;;29.83;;
9508;SDS011;4792;50.088;8.122;2022-12-18T14:47:26;76.53;;;33.83;;
9508;SDS011;4792;50.088;8.122;2022-12-18T14:49:54;82.33;;;32.93;;
9508;SDS011;4792;50.088;8.122;2022-12-18T14:52:25;77.67;;;32.97;;
9508;SDS011;4792;50.088;8.122;2022-12-18T14:54:56;79.50;;;32.30;;
9508;SDS011;4792;50.088;8.122;2022-12-18T14:57:27;75.37;;;32.23;;
9508;SDS011;4792;50.088;8.122;2022-12-18T15:00:06;80.40;;;32.97;;
9508;SDS011;4792;50.088;8.122;2022-12-18T15:02:43;84.33;;;32.77;;
9508;SDS011;4792;50.088;8.122;2022-12-18T15:05:17;75.10;;;31.77;;
9508;SDS011;4792;50.088;8.122;2022-12-18T15:07:48;76.53;;;31.27;;
9508;SDS011;4792;50.088;8.122;2022-12-18T15:10:18;86.00;;;33.63;;
9508;SDS011;4792;50.088;8.122;2022-12-18T15:12:49;86.60;;;31.73;;
9508;SDS011;4792;50.088;8.122;2022-12-18T15:15:45;78.77;;;29.97;;
9508;SDS011;4792;50.088;8.122;2022-12-18T15:18:15;81.20;;;31.33;;
9508;SDS011;4792;50.088;8.122;2022-12-18T15:20:46;81.67;;;33.10;;
9508;SDS011;4792;50.088;8.122;2022-12-18T15:23:17;81.73;;;32.60;;
9508;SDS011;4792;50.088;8.122;2022-12-18T15:25:48;78.30;;;30.73;;
9508;SDS011;4792;50.088;8.122;2022-12-18T15:28:24;78.00;;;32.77;;
9508;SDS011;4792;50.088;8.122;2022-12-18T15:31:05;77.00;;;32.57;;
9508;SDS011;4792;50.088;8.122;2022-12-18T15:33:59;76.90;;;30.87;;
9508;SDS011;4792;50.088;8.122;2022-12-18T15:36:32;85.03;;;32.03;;